Time;durP1;ratioP1;P1;durP2;ratioP2;P2;SDS_P1;SDS_P2;PMS_P1;PMS_P2;Temp;Humidity;BMP_temperature;BMP_pressure;BME280_temperature;BME280_humidity;BME280_pressure;Samples;Min_cycle;Max_cycle;Signal;HPM_P1;HPM_P2
2021/01/08 00:01:53;;;;;;;12.23;3.40;;;;;;;;;;5048057;28;20025;-71
2021/01/08 00:04:21;;;;;;;13.88;4.40;;;;;;;;;;5029119;28;20091;-73
2021/01/08 00:06:47;;;;;;;10.52;4.50;;;;;;;;;;5031187;28;20032;-73
2021/01/08 00:09:13;;;;;;;9.30;3.92;;;;;;;;;;5032192;28;20039;-72
2021/01/08 00:11:39;;;;;;;16.05;3.90;;;;;;;;;;5051011;28;20037;-73
2021/01/08 00:14:05;;;;;;;13.38;5.22;;;;;;;;;;5047595;28;20017;-71
2021/01/08 00:16:35;;;;;;;15.10;5.15;;;;;;;;;;5041076;28;20111;-72
2021/01/08 00:19:02;;;;;;;11.50;4.75;;;;;;;;;;5019047;28;20542;-70
2021/01/08 00:21:38;;;;;;;16.05;4.72;;;;;;;;;;5036087;28;21311;-72
2021/01/08 00:24:05;;;;;;;12.95;3.80;;;;;;;;;;5032579;28;20029;-71
2021/01/08 00:26:31;;;;;;;11.68;4.25;;;;;;;;;;5032471;28;20102;-71
2021/01/08 00:28:57;;;;;;;9.85;3.90;;;;;;;;;;5018112;28;20136;-72
2021/01/08 00:31:24;;;;;;;16.10;4.50;;;;;;;;;;5033316;28;20033;-72
2021/01/08 00:33:50;;;;;;;13.70;4.97;;;;;;;;;;5039838;28;20020;-72
2021/01/08 00:36:16;;;;;;;14.25;5.60;;;;;;;;;;5050592;28;20028;-73
2021/01/08 00:38:42;;;;;;;22.52;5.13;;;;;;;;;;5049065;28;20025;-73
2021/01/08 00:41:08;;;;;;;12.88;6.38;;;;;;;;;;5051513;28;20032;-73
2021/01/08 00:43:34;;;;;;;15.52;5.40;;;;;;;;;;5053148;28;20037;-73
2021/01/08 00:46:00;;;;;;;15.75;6.38;;;;;;;;;;5051325;28;20021;-73
2021/01/08 00:48:26;;;;;;;13.30;6.20;;;;;;;;;;5030601;28;20033;-74
2021/01/08 00:50:59;;;;;;;17.17;6.05;;;;;;;;;;5045152;28;20022;-74
2021/01/08 00:53:25;;;;;;;18.08;6.82;;;;;;;;;;5048995;28;20021;-72
2021/01/08 00:55:51;;;;;;;19.40;6.35;;;;;;;;;;5050917;28;20092;-71
2021/01/08 00:58:17;;;;;;;15.05;5.43;;;;;;;;;;5050229;28;20052;-73
2021/01/08 01:00:43;;;;;;;15.68;6.25;;;;;;;;;;5050104;28;20025;-74
2021/01/08 01:03:09;;;;;;;15.23;5.43;;;;;;;;;;5052366;28;20021;-74
2021/01/08 01:05:35;;;;;;;12.77;7.28;;;;;;;;;;5044764;28;20028;-74
2021/01/08 01:08:01;;;;;;;16.95;6.63;;;;;;;;;;5049783;28;20090;-75
2021/01/08 01:10:27;;;;;;;20.25;6.63;;;;;;;;;;5051962;28;20020;-74
2021/01/08 01:12:53;;;;;;;22.23;8.00;;;;;;;;;;5031751;28;20025;-74
2021/01/08 01:15:20;;;;;;;24.35;7.38;;;;;;;;;;5050726;28;20079;-76
2021/01/08 01:17:46;;;;;;;18.45;6.57;;;;;;;;;;5046042;28;20321;-76
2021/01/08 01:20:12;;;;;;;21.35;7.57;;;;;;;;;;5049097;28;20025;-75
2021/01/08 01:22:38;;;;;;;14.18;6.95;;;;;;;;;;5048679;28;20020;-72
2021/01/08 01:25:04;;;;;;;15.70;7.13;;;;;;;;;;5033250;28;20153;-74
2021/01/08 01:27:30;;;;;;;22.13;7.68;;;;;;;;;;5050008;28;20464;-72
2021/01/08 01:29:56;;;;;;;22.75;8.15;;;;;;;;;;5050816;28;20037;-76
2021/01/08 01:32:22;;;;;;;20.20;6.75;;;;;;;;;;5049946;28;20025;-76
2021/01/08 01:34:48;;;;;;;18.17;7.07;;;;;;;;;;5051733;28;20079;-75
2021/01/08 01:37:14;;;;;;;19.15;7.05;;;;;;;;;;5030195;28;20040;-75
2021/01/08 01:39:41;;;;;;;22.30;8.23;;;;;;;;;;5050999;28;20028;-74
2021/01/08 01:42:07;;;;;;;14.40;7.30;;;;;;;;;;5047262;28;20040;-75
2021/01/08 01:44:33;;;;;;;30.40;7.68;;;;;;;;;;5050956;28;20083;-76
2021/01/08 01:46:59;;;;;;;21.15;7.35;;;;;;;;;;5050776;28;20024;-75
2021/01/08 01:49:25;;;;;;;15.27;6.00;;;;;;;;;;5030517;28;20029;-75
2021/01/08 01:51:51;;;;;;;20.45;6.88;;;;;;;;;;5047444;28;20038;-76
2021/01/08 01:54:17;;;;;;;24.92;8.65;;;;;;;;;;5050195;28;20057;-77
2021/01/08 01:56:43;;;;;;;16.98;7.25;;;;;;;;;;5051936;28;20022;-75
2021/01/08 01:59:09;;;;;;;17.92;7.72;;;;;;;;;;5047553;28;20108;-75
2021/01/08 02:01:35;;;;;;;18.25;7.45;;;;;;;;;;5051817;28;20025;-77
2021/01/08 02:04:02;;;;;;;20.20;7.95;;;;;;;;;;5032737;28;20020;-77
2021/01/08 02:06:31;;;;;;;19.08;7.63;;;;;;;;;;5052122;28;20017;-75
2021/01/08 02:09:01;;;;;;;18.63;7.70;;;;;;;;;;5030846;28;20049;-77
2021/01/08 02:11:28;;;;;;;18.88;7.20;;;;;;;;;;5049761;28;20032;-78
2021/01/08 02:13:58;;;;;;;20.17;7.78;;;;;;;;;;5032377;28;20132;-75
2021/01/08 02:16:24;;;;;;;21.95;9.43;;;;;;;;;;5049868;28;20398;-77
2021/01/08 02:18:52;;;;;;;22.52;8.55;;;;;;;;;;5029884;28;20021;-78
2021/01/08 02:21:21;;;;;;;18.25;7.82;;;;;;;;;;5049000;28;20057;-77
2021/01/08 02:24:07;;;;;;;18.38;8.00;;;;;;;;;;5051255;28;20087;-78
2021/01/08 02:26:34;;;;;;;32.42;10.00;;;;;;;;;;5035752;28;20132;-79
2021/01/08 02:29:00;;;;;;;22.58;8.25;;;;;;;;;;5044095;28;20031;-78
2021/01/08 02:31:27;;;;;;;27.58;8.63;;;;;;;;;;5049369;28;20033;-78
2021/01/08 02:33:53;;;;;;;22.10;9.35;;;;;;;;;;5048853;28;20112;-79
2021/01/08 02:36:19;;;;;;;21.65;7.55;;;;;;;;;;5044411;28;20107;-79
2021/01/08 02:38:49;;;;;;;17.30;7.40;;;;;;;;;;5048013;28;20489;-78
2021/01/08 02:41:15;;;;;;;16.88;8.55;;;;;;;;;;5046895;28;20087;-78
2021/01/08 02:43:41;;;;;;;21.70;7.85;;;;;;;;;;5051369;28;20028;-79
2021/01/08 02:46:07;;;;;;;15.98;5.10;;;;;;;;;;5049129;28;20104;-79
2021/01/08 02:48:34;;;;;;;21.90;8.18;;;;;;;;;;5047537;28;20033;-78
2021/01/08 02:51:00;;;;;;;23.20;7.15;;;;;;;;;;5049006;28;20025;-77
2021/01/08 02:53:28;;;;;;;17.50;6.55;;;;;;;;;;5038721;28;22371;-78
2021/01/08 02:56:14;;;;;;;12.88;4.07;;;;;;;;;;5045972;28;20028;-76
2021/01/08 02:58:41;;;;;;;23.65;6.13;;;;;;;;;;5045927;28;20028;-77
2021/01/08 03:01:08;;;;;;;21.77;9.00;;;;;;;;;;5050314;28;20025;-77
2021/01/08 03:03:34;;;;;;;22.85;9.40;;;;;;;;;;5048718;28;20106;-76
2021/01/08 03:06:02;;;;;;;17.27;8.18;;;;;;;;;;5049404;28;20109;-77
2021/01/08 03:08:29;;;;;;;24.92;9.30;;;;;;;;;;5043533;28;20049;-77
2021/01/08 03:10:56;;;;;;;22.40;9.00;;;;;;;;;;5032352;28;20116;-78
2021/01/08 03:13:23;;;;;;;14.70;7.78;;;;;;;;;;5045134;28;20104;-78
2021/01/08 03:15:49;;;;;;;21.60;8.98;;;;;;;;;;5046357;28;20116;-79
2021/01/08 03:18:15;;;;;;;18.65;8.80;;;;;;;;;;5039851;28;20010;-79
2021/01/08 03:20:41;;;;;;;23.20;8.82;;;;;;;;;;5049605;28;20037;-78
2021/01/08 03:23:08;;;;;;;28.17;7.68;;;;;;;;;;5049519;28;20017;-77
2021/01/08 03:25:34;;;;;;;18.30;7.57;;;;;;;;;;5049083;28;20025;-77
2021/01/08 03:28:00;;;;;;;16.58;7.40;;;;;;;;;;5047008;28;20063;-78
2021/01/08 03:30:26;;;;;;;16.35;6.68;;;;;;;;;;5047361;28;20477;-76
2021/01/08 03:32:52;;;;;;;17.10;7.55;;;;;;;;;;5049406;28;20029;-77
2021/01/08 03:35:19;;;;;;;17.65;6.80;;;;;;;;;;5049026;28;20035;-77
2021/01/08 03:37:45;;;;;;;19.58;8.40;;;;;;;;;;5046774;28;20031;-77
2021/01/08 03:40:12;;;;;;;23.02;8.32;;;;;;;;;;5030046;28;20452;-77
2021/01/08 03:42:38;;;;;;;28.52;9.38;;;;;;;;;;5049147;28;20041;-78
2021/01/08 03:45:05;;;;;;;22.10;8.98;;;;;;;;;;5047793;28;20033;-79
2021/01/08 03:47:31;;;;;;;28.20;9.88;;;;;;;;;;5022981;28;20025;-77
2021/01/08 03:49:57;;;;;;;29.70;8.35;;;;;;;;;;5046912;28;20021;-78
2021/01/08 03:52:23;;;;;;;22.73;8.68;;;;;;;;;;5042709;28;20083;-77
2021/01/08 03:54:49;;;;;;;20.13;7.78;;;;;;;;;;5030616;28;20041;-78
2021/01/08 03:57:15;;;;;;;24.42;9.48;;;;;;;;;;5029879;28;20119;-77
2021/01/08 03:59:41;;;;;;;19.02;7.72;;;;;;;;;;5047090;28;20060;-79
2021/01/08 04:02:07;;;;;;;21.13;8.10;;;;;;;;;;5029090;28;20037;-78
2021/01/08 04:04:33;;;;;;;22.02;8.25;;;;;;;;;;5047267;28;20033;-77
2021/01/08 04:06:59;;;;;;;26.40;9.30;;;;;;;;;;5049313;28;20037;-79
2021/01/08 04:09:25;;;;;;;24.88;9.70;;;;;;;;;;5047082;28;20029;-78
2021/01/08 04:11:51;;;;;;;29.00;11.02;;;;;;;;;;5045280;28;20028;-78
2021/01/08 04:14:17;;;;;;;21.27;9.13;;;;;;;;;;5048816;28;20028;-77
2021/01/08 04:16:43;;;;;;;21.90;9.45;;;;;;;;;;5025100;28;20235;-77
2021/01/08 04:19:10;;;;;;;23.48;9.88;;;;;;;;;;5044571;28;20029;-76
2021/01/08 04:21:36;;;;;;;30.33;10.10;;;;;;;;;;5027371;28;20374;-77
2021/01/08 04:24:03;;;;;;;20.17;8.38;;;;;;;;;;5045480;28;20026;-80
2021/01/08 04:26:29;;;;;;;21.30;8.10;;;;;;;;;;5029675;28;20055;-77
2021/01/08 04:28:55;;;;;;;16.67;7.40;;;;;;;;;;5033837;28;20373;-77
2021/01/08 04:31:21;;;;;;;18.13;8.07;;;;;;;;;;5048317;28;20033;-77
2021/01/08 04:33:47;;;;;;;17.38;7.72;;;;;;;;;;5047557;28;20519;-77
2021/01/08 04:36:13;;;;;;;16.77;8.45;;;;;;;;;;5043156;28;20033;-77
2021/01/08 04:38:39;;;;;;;21.80;10.32;;;;;;;;;;5044389;28;20039;-77
2021/01/08 04:41:06;;;;;;;25.80;10.98;;;;;;;;;;5048903;28;20021;-77
2021/01/08 04:43:33;;;;;;;24.85;9.77;;;;;;;;;;5046929;28;20033;-77
2021/01/08 04:46:02;;;;;;;26.42;9.45;;;;;;;;;;5047608;28;20107;-78
2021/01/08 04:48:28;;;;;;;26.45;9.32;;;;;;;;;;5045791;28;20040;-78
2021/01/08 04:50:58;;;;;;;27.95;10.05;;;;;;;;;;5048986;28;20029;-77
2021/01/08 04:53:24;;;;;;;27.35;9.45;;;;;;;;;;5030101;28;20038;-77
2021/01/08 04:55:50;;;;;;;22.85;9.48;;;;;;;;;;5051987;28;20017;-76
2021/01/08 04:58:17;;;;;;;29.00;10.38;;;;;;;;;;5029969;28;20037;-78
2021/01/08 05:00:43;;;;;;;20.00;9.50;;;;;;;;;;5050968;28;20021;-78
2021/01/08 05:03:09;;;;;;;30.13;11.05;;;;;;;;;;5033852;28;20037;-76
2021/01/08 05:05:35;;;;;;;27.38;9.50;;;;;;;;;;5048052;28;20021;-76
2021/01/08 05:08:01;;;;;;;22.92;9.52;;;;;;;;;;5048737;28;20052;-78
2021/01/08 05:10:27;;;;;;;27.35;10.80;;;;;;;;;;5050700;28;20029;-73
2021/01/08 05:12:53;;;;;;;24.40;10.23;;;;;;;;;;5051300;28;20043;-76
2021/01/08 05:15:24;;;;;;;25.63;10.00;;;;;;;;;;5051699;28;20033;-76
2021/01/08 05:17:51;;;;;;;28.10;10.20;;;;;;;;;;5046626;28;20044;-78
2021/01/08 05:20:17;;;;;;;26.13;10.18;;;;;;;;;;5049642;28;20520;-76
2021/01/08 05:22:43;;;;;;;29.30;10.30;;;;;;;;;;5048447;28;20028;-77
2021/01/08 05:25:10;;;;;;;23.70;9.77;;;;;;;;;;5051151;28;20060;-77
2021/01/08 05:27:36;;;;;;;18.25;7.35;;;;;;;;;;5049867;28;20295;-77
2021/01/08 05:30:14;;;;;;;22.60;7.70;;;;;;;;;;5049151;28;20025;-77
2021/01/08 05:32:40;;;;;;;21.27;8.55;;;;;;;;;;5045618;28;20405;-77
2021/01/08 05:35:06;;;;;;;20.60;7.45;;;;;;;;;;5043664;28;20025;-77
2021/01/08 05:37:33;;;;;;;23.85;8.57;;;;;;;;;;5043112;28;20033;-78
2021/01/08 05:40:02;;;;;;;18.40;7.30;;;;;;;;;;5043074;28;20021;-79
2021/01/08 05:42:28;;;;;;;18.67;6.50;;;;;;;;;;5050885;28;20401;-78
2021/01/08 05:44:54;;;;;;;17.88;7.82;;;;;;;;;;5049970;28;20159;-77
2021/01/08 05:47:20;;;;;;;24.05;7.53;;;;;;;;;;5049975;28;20524;-77
2021/01/08 05:49:47;;;;;;;24.30;8.18;;;;;;;;;;5048207;28;20063;-73
2021/01/08 05:52:13;;;;;;;21.30;7.85;;;;;;;;;;5025807;28;20095;-75
2021/01/08 05:54:39;;;;;;;15.63;6.45;;;;;;;;;;5049584;28;20040;-74
2021/01/08 05:57:06;;;;;;;17.38;7.00;;;;;;;;;;5033362;28;20108;-74
2021/01/08 05:59:32;;;;;;;22.58;5.57;;;;;;;;;;5043487;28;20013;-74
2021/01/08 06:01:59;;;;;;;15.23;5.15;;;;;;;;;;5043714;28;20036;-74
2021/01/08 06:04:30;;;;;;;15.73;5.53;;;;;;;;;;5039768;28;20037;-73
2021/01/08 06:06:56;;;;;;;;;;;;;;;;;;5026206;28;20037;-71
2021/01/08 06:09:23;;;;;;;12.23;4.90;;;;;;;;;;5040890;28;19967;-72
2021/01/08 06:11:49;;;;;;;18.20;6.43;;;;;;;;;;5043386;28;20048;-71
2021/01/08 06:14:17;;;;;;;21.40;6.03;;;;;;;;;;5041870;28;20068;-72
2021/01/08 06:16:47;;;;;;;17.17;6.35;;;;;;;;;;5028084;28;20075;-72
2021/01/08 06:19:16;;;;;;;15.27;6.55;;;;;;;;;;5047330;28;20060;-72
2021/01/08 06:21:43;;;;;;;19.92;8.40;;;;;;;;;;5048432;28;20136;-72
2021/01/08 06:24:13;;;;;;;19.27;8.00;;;;;;;;;;5037542;28;20021;-72
2021/01/08 06:26:41;;;;;;;19.08;7.07;;;;;;;;;;5045598;28;20087;-72
2021/01/08 06:29:15;;;;;;;21.65;8.32;;;;;;;;;;5034257;28;20597;-73
2021/01/08 06:32:04;;;;;;;26.42;8.05;;;;;;;;;;5045661;28;20082;-73
2021/01/08 06:34:31;;;;;;;21.65;8.88;;;;;;;;;;5045975;28;20104;-73
2021/01/08 06:37:10;;;;;;;28.38;9.05;;;;;;;;;;5048875;28;20037;-74
2021/01/08 06:39:40;;;;;;;26.02;9.57;;;;;;;;;;5040150;28;20095;-73
2021/01/08 06:42:06;;;;;;;17.92;7.90;;;;;;;;;;5044731;28;20032;-74
2021/01/08 06:44:33;;;;;;;15.25;5.85;;;;;;;;;;5049484;28;20029;-74
2021/01/08 06:47:00;;;;;;;17.75;4.95;;;;;;;;;;5044563;28;20025;-73
2021/01/08 06:49:30;;;;;;;17.88;4.22;;;;;;;;;;5043723;28;20036;-73
2021/01/08 06:51:56;;;;;;;14.00;3.25;;;;;;;;;;5048373;28;20500;-74
2021/01/08 06:54:25;;;;;;;9.80;3.38;;;;;;;;;;5041546;28;20049;-73
2021/01/08 06:56:52;;;;;;;13.27;3.38;;;;;;;;;;5030975;28;20067;-75
2021/01/08 06:59:21;;;;;;;13.68;3.08;;;;;;;;;;5040790;28;20766;-74
2021/01/08 07:01:53;;;;;;;10.52;3.17;;;;;;;;;;5029717;28;20041;-74
2021/01/08 07:04:25;;;;;;;10.80;3.20;;;;;;;;;;5045768;28;20055;-73
2021/01/08 07:06:53;;;;;;;7.57;3.03;;;;;;;;;;5047348;28;20075;-76
2021/01/08 07:09:19;;;;;;;8.30;2.67;;;;;;;;;;5027373;28;20090;-75
2021/01/08 07:11:51;;;;;;;11.35;2.60;;;;;;;;;;5047334;28;20053;-75
2021/01/08 07:14:22;;;;;;;12.55;2.70;;;;;;;;;;5042956;28;20024;-76
2021/01/08 07:16:49;;;;;;;10.30;2.78;;;;;;;;;;5029338;28;20016;-76
2021/01/08 07:19:17;;;;;;;15.27;2.47;;;;;;;;;;5041930;28;20024;-76
2021/01/08 07:21:47;;;;;;;10.02;2.35;;;;;;;;;;5044894;28;20017;-77
2021/01/08 07:24:13;;;;;;;8.32;2.80;;;;;;;;;;5043895;28;20040;-76
2021/01/08 07:26:40;;;;;;;12.98;3.15;;;;;;;;;;5043648;28;20041;-75
2021/01/08 07:29:07;;;;;;;6.63;2.25;;;;;;;;;;5039354;28;20027;-76
2021/01/08 07:31:34;;;;;;;8.13;1.90;;;;;;;;;;5027806;28;20032;-76
2021/01/08 07:34:02;;;;;;;8.88;1.73;;;;;;;;;;5046984;28;20074;-76
2021/01/08 07:36:28;;;;;;;7.32;1.58;;;;;;;;;;5047110;28;20021;-77
2021/01/08 07:38:55;;;;;;;6.55;1.77;;;;;;;;;;5042553;28;20466;-76
2021/01/08 07:41:29;;;;;;;7.18;2.33;;;;;;;;;;5039958;28;20326;-76
2021/01/08 07:43:55;;;;;;;3.92;1.27;;;;;;;;;;5044643;28;20025;-77
2021/01/08 07:46:31;;;;;;;12.07;1.45;;;;;;;;;;5046694;28;20025;-77
2021/01/08 07:48:57;;;;;;;9.60;1.98;;;;;;;;;;5046057;28;20053;-77
2021/01/08 07:51:24;;;;;;;5.22;1.25;;;;;;;;;;5043828;28;20032;-77
2021/01/08 07:53:53;;;;;;;4.72;1.98;;;;;;;;;;5044564;28;20107;-78
2021/01/08 07:56:19;;;;;;;6.47;1.73;;;;;;;;;;5026850;28;20112;-79
2021/01/08 07:58:46;;;;;;;6.22;1.48;;;;;;;;;;5044309;28;20198;-75
2021/01/08 08:01:13;;;;;;;11.82;1.38;;;;;;;;;;5044531;28;20033;-78
2021/01/08 08:03:40;;;;;;;6.97;1.80;;;;;;;;;;5029936;28;20037;-77
2021/01/08 08:06:07;;;;;;;5.50;1.27;;;;;;;;;;5045555;28;20029;-77
2021/01/08 08:08:33;;;;;;;7.82;1.15;;;;;;;;;;5042573;28;20245;-81
2021/01/08 08:11:11;;;;;;;7.78;1.30;;;;;;;;;;5046832;28;20588;-80
2021/01/08 08:13:38;;;;;;;8.52;1.55;;;;;;;;;;5046317;28;20024;-79
2021/01/08 08:16:04;;;;;;;7.90;1.00;;;;;;;;;;5047776;28;20064;-78
2021/01/08 08:18:30;;;;;;;8.13;1.20;;;;;;;;;;5043737;28;20029;-79
2021/01/08 08:21:06;;;;;;;8.90;1.48;;;;;;;;;;5047010;28;20025;-80
2021/01/08 08:23:32;;;;;;;11.63;1.15;;;;;;;;;;5048203;28;20247;-80
2021/01/08 08:25:58;;;;;;;6.72;1.20;;;;;;;;;;5045112;28;20094;-81
2021/01/08 08:28:24;;;;;;;10.18;2.75;;;;;;;;;;5044399;28;20051;-81
2021/01/08 08:30:53;;;;;;;11.02;1.67;;;;;;;;;;5031915;28;20040;-79
2021/01/08 08:33:23;;;;;;;4.55;1.27;;;;;;;;;;5051060;28;20024;-77
2021/01/08 08:35:50;;;;;;;6.40;1.52;;;;;;;;;;5051064;28;20558;-78
2021/01/08 08:38:16;;;;;;;10.90;1.70;;;;;;;;;;5049109;28;20021;-76
2021/01/08 08:40:42;;;;;;;9.45;1.15;;;;;;;;;;5050985;28;20081;-77
2021/01/08 08:43:08;;;;;;;7.97;1.35;;;;;;;;;;5047324;28;20452;-79
2021/01/08 08:45:35;;;;;;;7.05;1.67;;;;;;;;;;5049091;28;20036;-76
2021/01/08 08:48:07;;;;;;;6.68;1.50;;;;;;;;;;5028312;28;20025;-78
2021/01/08 08:50:34;;;;;;;10.57;2.20;;;;;;;;;;5046433;28;20033;-77
2021/01/08 08:53:15;;;;;;;8.32;1.60;;;;;;;;;;5050391;28;20033;-79
2021/01/08 08:55:42;;;;;;;11.40;2.15;;;;;;;;;;5051363;28;20028;-80
2021/01/08 08:58:12;;;;;;;11.05;2.00;;;;;;;;;;5026415;28;20060;-78
2021/01/08 09:00:39;;;;;;;6.38;1.08;;;;;;;;;;5048073;28;20143;-77
2021/01/08 09:03:35;;;;;;;7.90;1.20;;;;;;;;;;5029321;28;20044;-79
2021/01/08 09:06:01;;;;;;;4.95;1.23;;;;;;;;;;5026997;28;20116;-78
2021/01/08 09:08:29;;;;;;;4.00;1.10;;;;;;;;;;5044924;28;20063;-78
2021/01/08 09:10:55;;;;;;;9.02;1.08;;;;;;;;;;5041838;28;20515;-78
2021/01/08 09:13:41;;;;;;;5.15;1.52;;;;;;;;;;5030497;28;20029;-79
2021/01/08 09:16:11;;;;;;;6.72;0.93;;;;;;;;;;5034519;28;20126;-78
2021/01/08 09:18:37;;;;;;;5.05;0.98;;;;;;;;;;5030165;28;20029;-80
2021/01/08 09:21:14;;;;;;;4.88;0.90;;;;;;;;;;5043694;28;20041;-78
2021/01/08 09:23:42;;;;;;;4.97;1.70;;;;;;;;;;5047121;28;20028;-78
2021/01/08 09:26:08;;;;;;;5.68;0.93;;;;;;;;;;5046939;28;20025;-78
2021/01/08 09:28:51;;;;;;;10.63;1.33;;;;;;;;;;5043332;28;20100;-78
2021/01/08 09:31:17;;;;;;;8.50;1.83;;;;;;;;;;5047551;28;20111;-78
2021/01/08 09:33:59;;;;;;;14.63;1.90;;;;;;;;;;5044331;28;20030;-78
2021/01/08 09:36:25;;;;;;;;;;;;;;;;;;5043869;28;20440;-79
2021/01/08 09:38:51;;;;;;;5.35;1.20;;;;;;;;;;5044316;28;19952;-78
2021/01/08 09:41:17;;;;;;;5.32;0.77;;;;;;;;;;5046167;28;20032;-80
2021/01/08 09:43:44;;;;;;;4.22;0.70;;;;;;;;;;5045430;28;20118;-80
2021/01/08 09:46:10;;;;;;;5.85;0.75;;;;;;;;;;5047933;28;20062;-80
2021/01/08 09:48:39;;;;;;;4.15;0.77;;;;;;;;;;5042848;28;20087;-81
2021/01/08 09:51:06;;;;;;;4.70;0.95;;;;;;;;;;5046951;28;20036;-78
2021/01/08 09:53:34;;;;;;;6.75;0.90;;;;;;;;;;5048489;28;20166;-79
2021/01/08 09:56:14;;;;;;;6.30;1.10;;;;;;;;;;5046973;28;20104;-80
2021/01/08 09:58:40;;;;;;;10.20;1.00;;;;;;;;;;5045077;28;20074;-78
2021/01/08 10:01:07;;;;;;;5.38;0.75;;;;;;;;;;5041976;28;20500;-78
2021/01/08 10:03:33;;;;;;;6.80;0.98;;;;;;;;;;5021577;28;20531;-79
2021/01/08 10:06:03;;;;;;;10.13;1.02;;;;;;;;;;5043148;28;20112;-80
2021/01/08 10:08:29;;;;;;;7.50;0.90;;;;;;;;;;5037188;28;20041;-78
2021/01/08 10:10:55;;;;;;;4.18;0.73;;;;;;;;;;5041753;28;20123;-78
2021/01/08 10:13:23;;;;;;;3.17;0.50;;;;;;;;;;5026043;28;20025;-79
2021/01/08 10:15:50;;;;;;;2.35;0.70;;;;;;;;;;5040232;28;20033;-78
2021/01/08 10:18:23;;;;;;;6.80;0.70;;;;;;;;;;5039810;28;20048;-77
2021/01/08 10:20:56;;;;;;;4.88;0.63;;;;;;;;;;5026652;28;20052;-78
2021/01/08 10:23:22;;;;;;;4.30;0.63;;;;;;;;;;5038955;28;20021;-79
2021/01/08 10:25:49;;;;;;;1.70;0.50;;;;;;;;;;5040940;28;20021;-78
2021/01/08 10:28:19;;;;;;;4.13;0.60;;;;;;;;;;5041926;28;20155;-77
2021/01/08 10:30:46;;;;;;;3.22;0.40;;;;;;;;;;5042977;28;20025;-78
2021/01/08 10:33:13;;;;;;;3.80;0.77;;;;;;;;;;5043317;28;20489;-79
2021/01/08 10:35:45;;;;;;;6.93;0.93;;;;;;;;;;5047639;28;20086;-80
2021/01/08 10:38:11;;;;;;;3.72;0.65;;;;;;;;;;5040446;28;20515;-79
2021/01/08 10:40:37;;;;;;;1.45;0.35;;;;;;;;;;5043314;28;20058;-79
2021/01/08 10:43:03;;;;;;;5.00;1.00;;;;;;;;;;5043672;28;20017;-82
2021/01/08 10:45:32;;;;;;;2.85;0.57;;;;;;;;;;5042924;28;20032;-79
2021/01/08 10:47:58;;;;;;;3.45;0.77;;;;;;;;;;5040181;28;20033;-79
2021/01/08 10:50:24;;;;;;;5.53;0.75;;;;;;;;;;5043160;28;20021;-79
2021/01/08 10:52:50;;;;;;;2.20;0.73;;;;;;;;;;5044334;28;20490;-79
2021/01/08 10:55:16;;;;;;;1.95;0.40;;;;;;;;;;5042352;28;20021;-79
2021/01/08 10:57:43;;;;;;;2.78;0.80;;;;;;;;;;5039378;28;20067;-80
2021/01/08 11:00:10;;;;;;;3.58;0.52;;;;;;;;;;5041195;28;20031;-79
2021/01/08 11:02:36;;;;;;;3.35;0.45;;;;;;;;;;5041312;28;20028;-80
2021/01/08 11:05:03;;;;;;;3.65;0.90;;;;;;;;;;5042809;28;20060;-80
2021/01/08 11:07:32;;;;;;;6.25;0.80;;;;;;;;;;5026034;28;20111;-81
2021/01/08 11:09:58;;;;;;;3.60;1.40;;;;;;;;;;5024025;28;20036;-80
2021/01/08 11:12:24;;;;;;;2.20;0.60;;;;;;;;;;5045174;28;20087;-80
2021/01/08 11:14:50;;;;;;;4.97;0.68;;;;;;;;;;5023793;28;20032;-79
2021/01/08 11:17:16;;;;;;;1.42;0.50;;;;;;;;;;5045556;28;20025;-81
2021/01/08 11:19:43;;;;;;;6.30;0.60;;;;;;;;;;5026139;28;20025;-81
2021/01/08 11:22:09;;;;;;;2.65;0.70;;;;;;;;;;5047097;28;20033;-81
2021/01/08 11:24:37;;;;;;;4.97;0.70;;;;;;;;;;5047974;28;20055;-81
2021/01/08 11:27:03;;;;;;;12.10;2.63;;;;;;;;;;5042997;28;20235;-79
2021/01/08 11:29:29;;;;;;;1.77;0.43;;;;;;;;;;5026168;28;20024;-81
2021/01/08 11:31:55;;;;;;;1.75;0.70;;;;;;;;;;5043663;28;20512;-81
2021/01/08 11:34:22;;;;;;;5.75;0.70;;;;;;;;;;5046839;28;20026;-81
2021/01/08 11:36:48;;;;;;;8.52;1.13;;;;;;;;;;5043422;28;20513;-81
2021/01/08 11:39:15;;;;;;;2.63;0.60;;;;;;;;;;5038343;28;20038;-82
2021/01/08 11:41:41;;;;;;;2.08;0.60;;;;;;;;;;5046882;28;20103;-81
2021/01/08 11:44:07;;;;;;;3.03;0.70;;;;;;;;;;5033570;28;20020;-81
2021/01/08 11:46:33;;;;;;;5.63;0.80;;;;;;;;;;5047065;28;20029;-80
2021/01/08 11:48:59;;;;;;;2.00;0.75;;;;;;;;;;5046759;28;20102;-80
2021/01/08 11:51:25;;;;;;;3.92;0.63;;;;;;;;;;5044455;28;20082;-80
2021/01/08 11:53:52;;;;;;;2.70;0.70;;;;;;;;;;5048860;28;20074;-81
2021/01/08 11:56:18;;;;;;;4.05;1.10;;;;;;;;;;5035711;28;20049;-80
2021/01/08 11:58:45;;;;;;;3.30;0.82;;;;;;;;;;5041693;28;20009;-80
2021/01/08 12:01:11;;;;;;;2.85;0.80;;;;;;;;;;5026810;28;20114;-81
2021/01/08 12:03:38;;;;;;;3.33;0.90;;;;;;;;;;5040765;28;20516;-81
2021/01/08 12:06:08;;;;;;;3.03;1.10;;;;;;;;;;5051195;28;20564;-80
2021/01/08 12:08:34;;;;;;;3.10;1.65;;;;;;;;;;5044565;28;20052;-81
2021/01/08 12:11:00;;;;;;;3.35;0.90;;;;;;;;;;5048315;28;20023;-79
2021/01/08 12:13:27;;;;;;;2.60;1.15;;;;;;;;;;5049406;28;20049;-80
2021/01/08 12:15:53;;;;;;;4.15;0.90;;;;;;;;;;5026554;28;20094;-80
2021/01/08 12:18:19;;;;;;;2.35;0.70;;;;;;;;;;5033131;28;20034;-80
2021/01/08 12:20:45;;;;;;;3.65;0.80;;;;;;;;;;5042154;28;20028;-79
2021/01/08 12:23:12;;;;;;;2.13;0.77;;;;;;;;;;5043010;28;20087;-81
2021/01/08 12:25:39;;;;;;;4.93;1.42;;;;;;;;;;5030547;28;20139;-79
2021/01/08 12:28:06;;;;;;;4.00;0.90;;;;;;;;;;5044902;28;20075;-79
2021/01/08 12:30:32;;;;;;;5.32;1.00;;;;;;;;;;5028848;28;20047;-79
2021/01/08 12:32:59;;;;;;;4.78;1.00;;;;;;;;;;5044986;28;20037;-80
2021/01/08 12:35:25;;;;;;;4.43;1.15;;;;;;;;;;5044032;28;20044;-80
2021/01/08 12:37:52;;;;;;;4.78;0.80;;;;;;;;;;5041063;28;20029;-80
2021/01/08 12:40:18;;;;;;;4.78;1.13;;;;;;;;;;5045566;28;20028;-80
2021/01/08 12:42:46;;;;;;;5.15;1.08;;;;;;;;;;5044412;28;20026;-79
2021/01/08 12:45:12;;;;;;;4.15;0.98;;;;;;;;;;5029971;28;20505;-80
2021/01/08 12:47:38;;;;;;;3.47;0.90;;;;;;;;;;5042310;28;20344;-80
2021/01/08 12:50:04;;;;;;;6.97;1.30;;;;;;;;;;5044515;28;20032;-80
2021/01/08 12:52:31;;;;;;;4.55;1.08;;;;;;;;;;5027152;28;20072;-80
2021/01/08 12:54:57;;;;;;;3.03;1.10;;;;;;;;;;5045431;28;20024;-81
2021/01/08 12:57:23;;;;;;;7.50;1.38;;;;;;;;;;5043068;28;20025;-82
2021/01/08 12:59:49;;;;;;;6.10;1.00;;;;;;;;;;5044754;28;20130;-81
2021/01/08 13:02:15;;;;;;;4.82;1.13;;;;;;;;;;5045686;28;20025;-81
2021/01/08 13:04:41;;;;;;;1.70;0.90;;;;;;;;;;5046429;28;21058;-81
2021/01/08 13:07:07;;;;;;;5.30;0.80;;;;;;;;;;5045920;28;20116;-83
2021/01/08 13:09:34;;;;;;;4.03;0.88;;;;;;;;;;5045583;28;20040;-81
2021/01/08 13:12:00;;;;;;;3.22;1.00;;;;;;;;;;5045595;28;20098;-80
2021/01/08 13:14:26;;;;;;;7.25;1.20;;;;;;;;;;5046802;28;20052;-80
2021/01/08 13:16:56;;;;;;;2.72;1.00;;;;;;;;;;5047226;28;20021;-81
2021/01/08 13:19:22;;;;;;;3.45;1.02;;;;;;;;;;5023988;28;20020;-80
2021/01/08 13:21:49;;;;;;;1.83;0.70;;;;;;;;;;5024034;28;20037;-81
2021/01/08 13:24:15;;;;;;;5.05;1.20;;;;;;;;;;5045318;28;20035;-82
2021/01/08 13:26:41;;;;;;;2.75;0.60;;;;;;;;;;5043829;28;20036;-80
2021/01/08 13:29:07;;;;;;;3.00;1.27;;;;;;;;;;5025477;28;20409;-80
2021/01/08 13:31:33;;;;;;;3.22;0.73;;;;;;;;;;5021227;28;20017;-81
2021/01/08 13:33:59;;;;;;;3.28;0.70;;;;;;;;;;5046170;28;20025;-81
2021/01/08 13:36:26;;;;;;;4.97;0.80;;;;;;;;;;5047800;28;20043;-81
2021/01/08 13:38:52;;;;;;;1.95;0.80;;;;;;;;;;5040160;28;20025;-80
2021/01/08 13:41:18;;;;;;;1.33;0.60;;;;;;;;;;5039870;28;20025;-81
2021/01/08 13:43:44;;;;;;;2.63;0.75;;;;;;;;;;5024232;28;20057;-80
2021/01/08 13:46:11;;;;;;;2.78;0.88;;;;;;;;;;5040401;28;20116;-79
2021/01/08 13:48:37;;;;;;;2.72;1.00;;;;;;;;;;5041104;28;20397;-78
2021/01/08 13:51:03;;;;;;;3.78;0.65;;;;;;;;;;5046129;28;20045;-81
2021/01/08 13:53:29;;;;;;;1.20;0.57;;;;;;;;;;5029669;28;20021;-80
2021/01/08 13:55:55;;;;;;;2.30;0.70;;;;;;;;;;5044416;28;20069;-79
2021/01/08 13:58:21;;;;;;;1.75;0.60;;;;;;;;;;5045565;28;20075;-79
2021/01/08 14:00:47;;;;;;;7.15;1.10;;;;;;;;;;5043016;28;20025;-80
2021/01/08 14:03:13;;;;;;;3.63;0.55;;;;;;;;;;5044042;28;20029;-79
2021/01/08 14:05:40;;;;;;;4.57;1.00;;;;;;;;;;5043653;28;20040;-80
2021/01/08 14:08:06;;;;;;;5.18;1.30;;;;;;;;;;5041169;28;20509;-80
2021/01/08 14:10:32;;;;;;;4.65;0.80;;;;;;;;;;5043896;28;20029;-80
2021/01/08 14:13:00;;;;;;;4.97;0.93;;;;;;;;;;5041098;28;20033;-80
2021/01/08 14:15:26;;;;;;;3.88;0.88;;;;;;;;;;5042492;28;20037;-82
2021/01/08 14:17:52;;;;;;;5.35;1.10;;;;;;;;;;5023682;28;20124;-80
2021/01/08 14:20:19;;;;;;;3.15;0.75;;;;;;;;;;5043956;28;20029;-81
2021/01/08 14:22:45;;;;;;;1.90;0.93;;;;;;;;;;5042518;28;20044;-81
2021/01/08 14:25:11;;;;;;;3.25;0.60;;;;;;;;;;5041979;28;20072;-80
2021/01/08 14:27:37;;;;;;;2.92;0.73;;;;;;;;;;5035854;28;20021;-80
2021/01/08 14:30:04;;;;;;;2.30;0.80;;;;;;;;;;5040397;28;20513;-79
2021/01/08 14:32:30;;;;;;;2.78;0.88;;;;;;;;;;5038175;28;20052;-80
2021/01/08 14:34:57;;;;;;;3.17;0.63;;;;;;;;;;5038950;28;20565;-81
2021/01/08 14:37:23;;;;;;;3.88;0.70;;;;;;;;;;5038571;28;20020;-80